Startpagina
METAR-TAF:

METAR-TAF

Vliegvelden :

Vliegbasis Kleine-Brogel

Peer, België

breedte: 51-10N, lengte: 005-28E, hoogte: 55 m

Actueel weer

Dit bericht is 21 minuten geleden gemaakt, om 04:33 UTC
Wind 1 kt uit variabele richting
Temperatuur -4°C
Vochtigheid 100%
Druk 1027 hPa
Zicht: 0500 m
nevel

METAR: EBBL 070433Z AUTO VRB01KT 0500 BR NCD M04/M04 Q1027 RED

Tijdstip: 05:54 (04:54 UTC)

Verwachting

Dit bericht is 13 uur en het 13 minuten geleden gemaakt, om 15:41 UTC
Verwachting geldig van 05 om 19 UTC tot 06 om 07 UTC
Wind 10 kt uit het noordoosten
Zicht 10 km of meer
Onbewolkt
Kans 30% :
Tijdelijke
van 06 om 04 UTC tot 06 om 07 UTC
Zicht: 4000 m
nevel

TAF: EBBL 051541Z 0519/0607 05010KT 9999 SKC PROB30 TEMPO 0604/0607 4000 BR

Waarnemingen en weersverwachtingen van meer dan 4000 vliegvelden (METAR en TAF).

De beschikbare stations zijn de gele en rode punten op de kaart.

Ga met uw muis naar het station om de naam te zien.

Klik dan om waarnemingen en weersverwachtingen te zien.

kaart wijzigen: klik op de groene knoppen met een zwart kruis om in te zoomen, op de groene knop met een streepje om uit te zoomen of op de groene pijlen voor aangrenzende kaarten.


METAR-TAF: